sensor_id;sensor_type;location;lat;lon;timestamp;pressure;altitude;pressure_sealevel;temperature;humidity
55994;BME280;67425;52.126;20.638;2023-05-11T00:01:07;57206.91;;;-144.78;30.47
55994;BME280;67425;52.126;20.638;2023-05-11T00:03:33;57192.38;;;-144.78;30.30
55994;BME280;67425;52.126;20.638;2023-05-11T00:05:58;57202.75;;;-144.78;30.49
55994;BME280;67425;52.126;20.638;2023-05-11T00:08:24;57194.47;;;-144.78;30.13
55994;BME280;67425;52.126;20.638;2023-05-11T00:10:49;57221.44;;;-144.78;30.69
55994;BME280;67425;52.126;20.638;2023-05-11T00:13:15;57209.00;;;-144.78;31.31
55994;BME280;67425;52.126;20.638;2023-05-11T00:15:40;57233.91;;;-144.78;30.90
55994;BME280;67425;52.126;20.638;2023-05-11T00:18:06;57209.00;;;-144.78;30.96
55994;BME280;67425;52.126;20.638;2023-05-11T00:20:31;57229.75;;;-144.78;31.12
55994;BME280;67425;52.126;20.638;2023-05-11T00:22:56;57213.16;;;-144.78;30.85
55994;BME280;67425;52.126;20.638;2023-05-11T00:25:22;57217.31;;;-144.78;30.88
55994;BME280;67425;52.126;20.638;2023-05-11T00:27:47;57200.69;;;-144.78;31.09
55994;BME280;67425;52.126;20.638;2023-05-11T00:30:13;57211.06;;;-144.78;31.50
55994;BME280;67425;52.126;20.638;2023-05-11T00:32:40;57225.59;;;-144.78;31.22
55994;BME280;67425;52.126;20.638;2023-05-11T00:35:06;57229.75;;;-144.78;31.12
55994;BME280;67425;52.126;20.638;2023-05-11T00:37:31;57209.00;;;-144.78;30.91
55994;BME280;67425;52.126;20.638;2023-05-11T00:39:57;57213.16;;;-144.78;31.64
55994;BME280;67425;52.126;20.638;2023-05-11T00:42:22;57221.44;;;-144.78;31.66
55994;BME280;67425;52.126;20.638;2023-05-11T00:44:47;57248.44;;;-144.78;31.72
55994;BME280;67425;52.126;20.638;2023-05-11T00:47:13;57231.84;;;-144.78;31.91
55994;BME280;67425;52.126;20.638;2023-05-11T00:49:38;57223.53;;;-144.78;31.41
55994;BME280;67425;52.126;20.638;2023-05-11T00:52:04;57233.91;;;-144.78;31.92
55994;BME280;67425;52.126;20.638;2023-05-11T00:54:30;57246.38;;;-144.78;31.81
55994;BME280;67425;52.126;20.638;2023-05-11T00:56:55;57252.59;;;-144.78;32.05
55994;BME280;67425;52.126;20.638;2023-05-11T00:59:21;57225.59;;;-144.78;31.65
55994;BME280;67425;52.126;20.638;2023-05-11T01:01:47;57221.44;;;-144.78;31.66
55994;BME280;67425;52.126;20.638;2023-05-11T01:04:14;57238.06;;;-144.78;31.77
55994;BME280;67425;52.126;20.638;2023-05-11T01:06:59;57231.84;;;-144.78;31.81
55994;BME280;67425;52.126;20.638;2023-05-11T01:14:59;57238.06;;;-144.78;32.39
55994;BME280;67425;52.126;20.638;2023-05-11T01:17:35;57231.84;;;-144.78;32.05
55994;BME280;67425;52.126;20.638;2023-05-11T01:20:05;57277.53;;;-144.78;32.74
55994;BME280;67425;52.126;20.638;2023-05-11T01:31:06;57252.59;;;-144.78;32.67
55994;BME280;67425;52.126;20.638;2023-05-11T01:33:34;57240.13;;;-144.78;32.46
55994;BME280;67425;52.126;20.638;2023-05-11T01:36:05;57250.53;;;-144.78;32.81
55994;BME280;67425;52.126;20.638;2023-05-11T01:38:34;57248.44;;;-144.78;32.49
55994;BME280;67425;52.126;20.638;2023-05-11T01:41:08;57256.75;;;-144.78;33.01
55994;BME280;67425;52.126;20.638;2023-05-11T01:43:35;57281.69;;;-144.78;33.73
55994;BME280;67425;52.126;20.638;2023-05-11T01:46:02;57258.84;;;-144.78;32.43
55994;BME280;67425;52.126;20.638;2023-05-11T01:48:30;57254.69;;;-144.78;33.03
55994;BME280;67425;52.126;20.638;2023-05-11T01:51:00;57262.97;;;-144.78;32.44
55994;BME280;67425;52.126;20.638;2023-05-11T01:53:28;57279.59;;;-144.78;32.98
55994;BME280;67425;52.126;20.638;2023-05-11T01:55:57;57267.13;;;-144.78;33.12
55994;BME280;67425;52.126;20.638;2023-05-11T01:58:24;57258.84;;;-144.78;32.91
55994;BME280;67425;52.126;20.638;2023-05-11T02:00:51;57265.06;;;-144.78;33.00
55994;BME280;67425;52.126;20.638;2023-05-11T02:03:19;57267.13;;;-144.78;32.81
55994;BME280;67425;52.126;20.638;2023-05-11T02:05:47;57267.13;;;-144.78;33.23
55994;BME280;67425;52.126;20.638;2023-05-11T02:08:13;57279.59;;;-144.78;33.42
55994;BME280;67425;52.126;20.638;2023-05-11T02:10:40;57250.53;;;-144.78;32.26
55994;BME280;67425;52.126;20.638;2023-05-11T02:13:07;57287.91;;;-144.78;33.07
55994;BME280;67425;52.126;20.638;2023-05-11T02:15:36;57262.97;;;-144.78;32.09
55994;BME280;67425;52.126;20.638;2023-05-11T02:18:03;57271.28;;;-144.78;32.65
55994;BME280;67425;52.126;20.638;2023-05-11T02:20:31;57281.69;;;-144.78;32.89
55994;BME280;67425;52.126;20.638;2023-05-11T02:22:57;57277.53;;;-144.78;32.88
55994;BME280;67425;52.126;20.638;2023-05-11T02:25:24;57252.59;;;-144.78;32.59
55994;BME280;67425;52.126;20.638;2023-05-11T02:27:50;57262.97;;;-144.78;32.42
55994;BME280;67425;52.126;20.638;2023-05-11T02:30:16;57256.75;;;-144.78;32.49
55994;BME280;67425;52.126;20.638;2023-05-11T02:32:47;57246.38;;;-144.78;32.35
55994;BME280;67425;52.126;20.638;2023-05-11T02:35:19;57254.69;;;-144.78;32.61
55994;BME280;67425;52.126;20.638;2023-05-11T02:37:46;57244.28;;;-144.78;32.11
55994;BME280;67425;52.126;20.638;2023-05-11T02:40:17;57246.38;;;-144.78;32.30
55994;BME280;67425;52.126;20.638;2023-05-11T02:42:44;57252.59;;;-144.78;32.13
55994;BME280;67425;52.126;20.638;2023-05-11T02:45:15;57242.22;;;-144.78;32.05
55994;BME280;67425;52.126;20.638;2023-05-11T02:47:46;57250.53;;;-144.78;32.39
55994;BME280;67425;52.126;20.638;2023-05-11T02:50:12;57287.91;;;-144.78;32.36
55994;BME280;67425;52.126;20.638;2023-05-11T02:52:42;57281.69;;;-144.78;33.03
55994;BME280;67425;52.126;20.638;2023-05-11T02:55:09;57252.59;;;-144.78;32.42
55994;BME280;67425;52.126;20.638;2023-05-11T02:57:37;57260.91;;;-144.78;33.23
55994;BME280;67425;52.126;20.638;2023-05-11T03:00:03;57306.59;;;-144.78;34.26
55994;BME280;67425;52.126;20.638;2023-05-11T03:02:29;57287.91;;;-144.78;33.91
55994;BME280;67425;52.126;20.638;2023-05-11T03:04:54;57302.44;;;-144.78;33.90
55994;BME280;67425;52.126;20.638;2023-05-11T03:07:19;57292.06;;;-144.78;34.32
55994;BME280;67425;52.126;20.638;2023-05-11T03:09:45;57294.13;;;-144.78;34.46
55994;BME280;67425;52.126;20.638;2023-05-11T03:12:10;57283.75;;;-144.78;33.94
55994;BME280;67425;52.126;20.638;2023-05-11T03:14:36;57306.59;;;-144.78;33.97
55994;BME280;67425;52.126;20.638;2023-05-11T03:17:03;57277.53;;;-144.78;33.17
55994;BME280;67425;52.126;20.638;2023-05-11T03:19:30;57267.13;;;-144.78;32.94
55994;BME280;67425;52.126;20.638;2023-05-11T03:21:57;57267.13;;;-144.78;33.17
55994;BME280;67425;52.126;20.638;2023-05-11T03:24:24;57256.75;;;-144.78;32.95
55994;BME280;67425;52.126;20.638;2023-05-11T03:26:53;57269.22;;;-144.78;33.39
55994;BME280;67425;52.126;20.638;2023-05-11T03:29:18;57252.59;;;-144.78;33.32
55994;BME280;67425;52.126;20.638;2023-05-11T03:31:44;57298.28;;;-144.78;34.24
55994;BME280;67425;52.126;20.638;2023-05-11T03:34:09;57292.06;;;-144.78;34.36
55994;BME280;67425;52.126;20.638;2023-05-11T03:36:35;57250.53;;;-144.78;33.10
55994;BME280;67425;52.126;20.638;2023-05-11T03:39:03;57304.50;;;-144.78;34.53
55994;BME280;67425;52.126;20.638;2023-05-11T03:41:30;57287.91;;;-144.78;34.68
55994;BME280;67425;52.126;20.638;2023-05-11T03:43:59;57310.75;;;-144.78;35.05
55994;BME280;67425;52.126;20.638;2023-05-11T03:46:25;57304.50;;;-144.78;34.89
55994;BME280;67425;52.126;20.638;2023-05-11T03:48:52;57298.28;;;-144.78;35.58
55994;BME280;67425;52.126;20.638;2023-05-11T03:51:18;57310.75;;;-144.78;35.25
55994;BME280;67425;52.126;20.638;2023-05-11T03:53:43;57298.28;;;-144.78;35.03
55994;BME280;67425;52.126;20.638;2023-05-11T03:56:09;57300.38;;;-144.78;34.88
55994;BME280;67425;52.126;20.638;2023-05-11T03:58:39;57296.22;;;-144.78;34.73
55994;BME280;67425;52.126;20.638;2023-05-11T04:01:06;57298.28;;;-144.78;34.97
55994;BME280;67425;52.126;20.638;2023-05-11T04:03:32;57277.53;;;-144.78;33.92
55994;BME280;67425;52.126;20.638;2023-05-11T04:05:57;57287.91;;;-144.78;34.02
55994;BME280;67425;52.126;20.638;2023-05-11T04:08:23;57281.69;;;-144.78;34.64
55994;BME280;67425;52.126;20.638;2023-05-11T04:10:48;57294.13;;;-144.78;34.27
55994;BME280;67425;52.126;20.638;2023-05-11T04:13:14;57283.75;;;-144.78;34.64
55994;BME280;67425;52.126;20.638;2023-05-11T04:15:39;57287.91;;;-144.78;34.35
55994;BME280;67425;52.126;20.638;2023-05-11T04:18:04;57285.81;;;-144.78;34.13
55994;BME280;67425;52.126;20.638;2023-05-11T04:20:30;57306.59;;;-144.78;34.14
55994;BME280;67425;52.126;20.638;2023-05-11T04:22:55;57254.69;;;-144.78;33.65
55994;BME280;67425;52.126;20.638;2023-05-11T04:25:21;57260.91;;;-144.78;33.55
55994;BME280;67425;52.126;20.638;2023-05-11T04:27:46;57256.75;;;-144.78;33.53
55994;BME280;67425;52.126;20.638;2023-05-11T04:30:12;57256.75;;;-144.78;33.56
55994;BME280;67425;52.126;20.638;2023-05-11T04:32:37;57277.53;;;-144.78;33.50
55994;BME280;67425;52.126;20.638;2023-05-11T04:35:03;57258.84;;;-144.78;33.47
55994;BME280;67425;52.126;20.638;2023-05-11T04:37:28;57248.44;;;-144.78;33.72
55994;BME280;67425;52.126;20.638;2023-05-11T04:39:53;57252.59;;;-144.78;33.03
55994;BME280;67425;52.126;20.638;2023-05-11T04:42:19;57246.38;;;-144.78;32.75
55994;BME280;67425;52.126;20.638;2023-05-11T04:44:44;57250.53;;;-144.78;32.80
55994;BME280;67425;52.126;20.638;2023-05-11T04:47:09;57252.59;;;-144.78;32.67
55994;BME280;67425;52.126;20.638;2023-05-11T04:49:35;57254.69;;;-144.78;32.73
55994;BME280;67425;52.126;20.638;2023-05-11T04:52:00;57256.75;;;-144.78;32.67
55994;BME280;67425;52.126;20.638;2023-05-11T04:54:25;57236.00;;;-144.78;32.39
55994;BME280;67425;52.126;20.638;2023-05-11T04:56:51;57229.75;;;-144.78;32.39
55994;BME280;67425;52.126;20.638;2023-05-11T04:59:16;57246.38;;;-144.78;32.79
55994;BME280;67425;52.126;20.638;2023-05-11T05:01:41;57231.84;;;-144.78;32.29
55994;BME280;67425;52.126;20.638;2023-05-11T05:04:07;57227.69;;;-144.78;32.17
55994;BME280;67425;52.126;20.638;2023-05-11T05:06:32;57231.84;;;-144.78;32.49
55994;BME280;67425;52.126;20.638;2023-05-11T05:08:58;57225.59;;;-144.78;32.03
55994;BME280;67425;52.126;20.638;2023-05-11T05:11:23;57217.31;;;-144.78;31.74
55994;BME280;67425;52.126;20.638;2023-05-11T05:13:48;57198.59;;;-144.78;31.82
55994;BME280;67425;52.126;20.638;2023-05-11T05:16:14;57182.00;;;-144.78;31.49
55994;BME280;67425;52.126;20.638;2023-05-11T05:18:39;57190.31;;;-144.78;30.74
55994;BME280;67425;52.126;20.638;2023-05-11T05:21:05;57204.84;;;-144.78;31.38
55994;BME280;67425;52.126;20.638;2023-05-11T05:23:30;57186.16;;;-144.78;31.43
55994;BME280;67425;52.126;20.638;2023-05-11T05:25:55;57188.22;;;-144.78;31.34
55994;BME280;67425;52.126;20.638;2023-05-11T05:28:21;57182.00;;;-144.78;29.96
55994;BME280;67425;52.126;20.638;2023-05-11T05:30:46;57144.63;;;-144.78;29.60
55994;BME280;67425;52.126;20.638;2023-05-11T05:33:11;57130.09;;;-144.78;29.13
55994;BME280;67425;52.126;20.638;2023-05-11T05:35:37;57148.78;;;-144.78;29.21
55994;BME280;67425;52.126;20.638;2023-05-11T05:38:02;57125.94;;;-144.78;29.17
55994;BME280;67425;52.126;20.638;2023-05-11T05:40:27;57107.25;;;-144.78;28.79
55994;BME280;67425;52.126;20.638;2023-05-11T05:42:53;57146.69;;;-144.78;29.31
55994;BME280;67425;52.126;20.638;2023-05-11T05:45:19;57134.22;;;-144.78;28.97
55994;BME280;67425;52.126;20.638;2023-05-11T05:47:44;57123.84;;;-144.78;28.95
55994;BME280;67425;52.126;20.638;2023-05-11T05:50:09;57130.09;;;-144.78;29.57
55994;BME280;67425;52.126;20.638;2023-05-11T05:52:35;57163.31;;;-144.78;29.64
55994;BME280;67425;52.126;20.638;2023-05-11T05:55:01;57125.94;;;-144.78;28.84
55994;BME280;67425;52.126;20.638;2023-05-11T05:57:26;57128.00;;;-144.78;29.37
55994;BME280;67425;52.126;20.638;2023-05-11T05:59:54;57107.25;;;-144.78;28.74
55994;BME280;67425;52.126;20.638;2023-05-11T06:02:20;57088.56;;;-144.78;28.47
55994;BME280;67425;52.126;20.638;2023-05-11T06:04:45;57090.63;;;-144.78;27.73
55994;BME280;67425;52.126;20.638;2023-05-11T06:07:11;57098.94;;;-144.78;27.76
55994;BME280;67425;52.126;20.638;2023-05-11T06:09:38;57107.25;;;-144.78;28.14
55994;BME280;67425;52.126;20.638;2023-05-11T06:12:04;57080.25;;;-144.78;27.52
55994;BME280;67425;52.126;20.638;2023-05-11T06:14:30;57074.00;;;-144.78;27.80
55994;BME280;67425;52.126;20.638;2023-05-11T06:16:55;57063.63;;;-144.78;27.19
55994;BME280;67425;52.126;20.638;2023-05-11T06:19:21;57040.78;;;-144.78;27.07
55994;BME280;67425;52.126;20.638;2023-05-11T06:21:46;57090.63;;;-144.78;27.25
55994;BME280;67425;52.126;20.638;2023-05-11T06:24:12;57061.56;;;-144.78;27.09
55994;BME280;67425;52.126;20.638;2023-05-11T06:26:38;57057.41;;;-144.78;26.23
55994;BME280;67425;52.126;20.638;2023-05-11T06:29:05;57055.31;;;-144.78;26.04
55994;BME280;67425;52.126;20.638;2023-05-11T06:31:30;57038.72;;;-144.78;26.42
55994;BME280;67425;52.126;20.638;2023-05-11T06:33:55;57053.25;;;-144.78;26.67
55994;BME280;67425;52.126;20.638;2023-05-11T06:36:21;57047.03;;;-144.78;26.89
55994;BME280;67425;52.126;20.638;2023-05-11T06:38:46;57038.72;;;-144.78;26.48
55994;BME280;67425;52.126;20.638;2023-05-11T06:41:11;57030.41;;;-144.78;25.39
55994;BME280;67425;52.126;20.638;2023-05-11T06:43:37;57032.47;;;-144.78;25.45
55994;BME280;67425;52.126;20.638;2023-05-11T06:46:03;57030.41;;;-144.78;26.24
55994;BME280;67425;52.126;20.638;2023-05-11T06:48:28;57022.09;;;-144.78;26.35
55994;BME280;67425;52.126;20.638;2023-05-11T06:50:55;57015.88;;;-144.78;25.93
55994;BME280;67425;52.126;20.638;2023-05-11T06:53:20;57020.03;;;-144.78;25.13
55994;BME280;67425;52.126;20.638;2023-05-11T06:55:46;57003.41;;;-144.78;24.99
55994;BME280;67425;52.126;20.638;2023-05-11T06:58:11;57022.09;;;-144.78;25.01
55994;BME280;67425;52.126;20.638;2023-05-11T07:00:37;57011.72;;;-144.78;24.97
55994;BME280;67425;52.126;20.638;2023-05-11T07:03:03;57003.41;;;-144.78;24.81
55994;BME280;67425;52.126;20.638;2023-05-11T07:05:29;56988.88;;;-144.78;24.58
55994;BME280;67425;52.126;20.638;2023-05-11T07:07:54;57009.66;;;-144.78;24.76
55994;BME280;67425;52.126;20.638;2023-05-11T07:10:19;57003.41;;;-144.78;25.14
55994;BME280;67425;52.126;20.638;2023-05-11T07:12:45;56997.19;;;-144.78;24.44
55994;BME280;67425;52.126;20.638;2023-05-11T07:15:10;56990.97;;;-144.78;24.03
55994;BME280;67425;52.126;20.638;2023-05-11T07:17:36;57013.78;;;-144.78;24.63
55994;BME280;67425;52.126;20.638;2023-05-11T07:20:02;57017.94;;;-144.78;23.71
55994;BME280;67425;52.126;20.638;2023-05-11T07:22:27;56978.50;;;-144.78;23.41
55994;BME280;67425;52.126;20.638;2023-05-11T07:24:52;56986.81;;;-144.78;23.40
55994;BME280;67425;52.126;20.638;2023-05-11T07:27:18;56990.97;;;-144.78;23.31
55994;BME280;67425;52.126;20.638;2023-05-11T07:29:43;56976.41;;;-144.78;23.90
55994;BME280;67425;52.126;20.638;2023-05-11T07:32:08;56959.81;;;-144.78;23.40
55994;BME280;67425;52.126;20.638;2023-05-11T07:34:34;56963.97;;;-144.78;22.89
55994;BME280;67425;52.126;20.638;2023-05-11T07:36:59;56968.13;;;-144.78;24.09
55994;BME280;67425;52.126;20.638;2023-05-11T07:39:24;56976.41;;;-144.78;23.10
55994;BME280;67425;52.126;20.638;2023-05-11T07:41:50;57013.78;;;-144.78;24.01
55994;BME280;67425;52.126;20.638;2023-05-11T07:44:15;57015.88;;;-144.78;23.74
55994;BME280;67425;52.126;20.638;2023-05-11T07:46:41;57015.88;;;-144.78;23.78
55994;BME280;67425;52.126;20.638;2023-05-11T07:49:06;57015.88;;;-144.78;23.40
55994;BME280;67425;52.126;20.638;2023-05-11T07:51:33;56980.56;;;-144.78;24.06
55994;BME280;67425;52.126;20.638;2023-05-11T07:53:58;57009.66;;;-144.78;23.53
55994;BME280;67425;52.126;20.638;2023-05-11T07:56:24;57036.63;;;-144.78;23.61
55994;BME280;67425;52.126;20.638;2023-05-11T07:58:49;57005.50;;;-144.78;23.91
55994;BME280;67425;52.126;20.638;2023-05-11T08:01:14;57020.03;;;-144.78;23.62
55994;BME280;67425;52.126;20.638;2023-05-11T08:03:40;56997.19;;;-144.78;23.97
55994;BME280;67425;52.126;20.638;2023-05-11T08:06:06;57020.03;;;-144.78;23.37
55994;BME280;67425;52.126;20.638;2023-05-11T08:08:31;57015.88;;;-144.78;23.97
55994;BME280;67425;52.126;20.638;2023-05-11T08:10:57;57001.34;;;-144.78;23.45
55994;BME280;67425;52.126;20.638;2023-05-11T08:13:22;56982.66;;;-144.78;24.22
55994;BME280;67425;52.126;20.638;2023-05-11T08:15:48;57001.34;;;-144.78;23.70
55994;BME280;67425;52.126;20.638;2023-05-11T08:18:13;56986.81;;;-144.78;23.51
55994;BME280;67425;52.126;20.638;2023-05-11T08:20:39;56990.97;;;-144.78;23.94
55994;BME280;67425;52.126;20.638;2023-05-11T08:23:06;57009.66;;;-144.78;23.85
55994;BME280;67425;52.126;20.638;2023-05-11T08:25:32;56988.88;;;-144.78;24.26
55994;BME280;67425;52.126;20.638;2023-05-11T08:27:59;56997.19;;;-144.78;24.21
55994;BME280;67425;52.126;20.638;2023-05-11T08:30:24;56997.19;;;-144.78;23.26
55994;BME280;67425;52.126;20.638;2023-05-11T08:32:49;56986.81;;;-144.78;23.23
55994;BME280;67425;52.126;20.638;2023-05-11T08:35:15;56986.81;;;-144.78;24.30
55994;BME280;67425;52.126;20.638;2023-05-11T08:37:40;56959.81;;;-144.78;23.76
55994;BME280;67425;52.126;20.638;2023-05-11T08:40:06;56966.03;;;-144.78;23.91
55994;BME280;67425;52.126;20.638;2023-05-11T08:42:33;56990.97;;;-144.78;23.00
55994;BME280;67425;52.126;20.638;2023-05-11T08:45:00;56974.34;;;-144.78;23.67
55994;BME280;67425;52.126;20.638;2023-05-11T08:47:26;56986.81;;;-144.78;25.38
55994;BME280;67425;52.126;20.638;2023-05-11T08:49:52;56988.88;;;-144.78;24.69
55994;BME280;67425;52.126;20.638;2023-05-11T08:52:18;56961.88;;;-144.78;24.30
55994;BME280;67425;52.126;20.638;2023-05-11T08:54:44;56976.41;;;-144.78;23.47
55994;BME280;67425;52.126;20.638;2023-05-11T08:57:11;56961.88;;;-144.78;24.37
55994;BME280;67425;52.126;20.638;2023-05-11T08:59:37;56980.56;;;-144.78;23.88
55994;BME280;67425;52.126;20.638;2023-05-11T09:02:03;56953.56;;;-144.78;23.70
55994;BME280;67425;52.126;20.638;2023-05-11T09:04:31;56978.50;;;-144.78;23.83
55994;BME280;67425;52.126;20.638;2023-05-11T09:06:57;56972.25;;;-144.78;23.26
55994;BME280;67425;52.126;20.638;2023-05-11T09:09:24;56976.41;;;-144.78;23.76
55994;BME280;67425;52.126;20.638;2023-05-11T09:11:49;56966.03;;;-144.78;24.95
55994;BME280;67425;52.126;20.638;2023-05-11T09:14:15;56970.19;;;-144.78;22.86
55994;BME280;67425;52.126;20.638;2023-05-11T09:16:41;56963.97;;;-144.78;24.00
55994;BME280;67425;52.126;20.638;2023-05-11T09:19:13;56943.19;;;-144.78;23.35
55994;BME280;67425;52.126;20.638;2023-05-11T09:21:38;56966.03;;;-144.78;23.56
55994;BME280;67425;52.126;20.638;2023-05-11T09:24:04;56959.81;;;-144.78;22.14
55994;BME280;67425;52.126;20.638;2023-05-11T09:26:32;56966.03;;;-144.78;23.38
55994;BME280;67425;52.126;20.638;2023-05-11T09:28:58;56961.88;;;-144.78;23.40
55994;BME280;67425;52.126;20.638;2023-05-11T09:31:43;56955.66;;;-144.78;23.28
55994;BME280;67425;52.126;20.638;2023-05-11T09:36:38;56966.03;;;-144.78;22.83
55994;BME280;67425;52.126;20.638;2023-05-11T09:39:03;56961.88;;;-144.78;23.95
55994;BME280;67425;52.126;20.638;2023-05-11T09:41:29;56953.56;;;-144.78;23.09
55994;BME280;67425;52.126;20.638;2023-05-11T09:46:35;56939.03;;;-144.78;23.40
55994;BME280;67425;52.126;20.638;2023-05-11T09:49:01;56957.72;;;-144.78;23.91
55994;BME280;67425;52.126;20.638;2023-05-11T09:51:30;56955.66;;;-144.78;23.27
55994;BME280;67425;52.126;20.638;2023-05-11T09:53:57;56957.72;;;-144.78;23.39
55994;BME280;67425;52.126;20.638;2023-05-11T09:56:23;57001.34;;;-144.78;22.68
55994;BME280;67425;52.126;20.638;2023-05-11T09:58:52;56974.34;;;-144.78;23.67
55994;BME280;67425;52.126;20.638;2023-05-11T10:01:32;56939.03;;;-144.78;22.36
55994;BME280;67425;52.126;20.638;2023-05-11T10:04:02;56957.72;;;-144.78;23.94
55994;BME280;67425;52.126;20.638;2023-05-11T10:06:42;56945.28;;;-144.78;22.82
55994;BME280;67425;52.126;20.638;2023-05-11T10:09:08;56943.19;;;-144.78;22.50
55994;BME280;67425;52.126;20.638;2023-05-11T10:11:35;56930.72;;;-144.78;23.48
55994;BME280;67425;52.126;20.638;2023-05-11T10:14:02;56949.44;;;-144.78;23.21
55994;BME280;67425;52.126;20.638;2023-05-11T10:16:27;56949.44;;;-144.78;22.20
55994;BME280;67425;52.126;20.638;2023-05-11T10:18:53;56916.19;;;-144.78;23.10
55994;BME280;67425;52.126;20.638;2023-05-11T10:21:19;56928.66;;;-144.78;22.30
55994;BME280;67425;52.126;20.638;2023-05-11T10:23:44;56926.59;;;-144.78;23.89
55994;BME280;67425;52.126;20.638;2023-05-11T10:26:10;56920.34;;;-144.78;24.17
55994;BME280;67425;52.126;20.638;2023-05-11T10:28:36;56920.34;;;-144.78;23.70
55994;BME280;67425;52.126;20.638;2023-05-11T10:31:02;56926.59;;;-144.78;22.43
55994;BME280;67425;52.126;20.638;2023-05-11T10:33:29;56928.66;;;-144.78;22.66
55994;BME280;67425;52.126;20.638;2023-05-11T10:35:55;56936.97;;;-144.78;22.68
55994;BME280;67425;52.126;20.638;2023-05-11T10:38:21;56920.34;;;-144.78;21.96
55994;BME280;67425;52.126;20.638;2023-05-11T10:40:48;56918.28;;;-144.78;22.46
55994;BME280;67425;52.126;20.638;2023-05-11T10:46:29;56922.44;;;-144.78;23.30
55994;BME280;67425;52.126;20.638;2023-05-11T10:49:08;56928.66;;;-144.78;22.67
55994;BME280;67425;52.126;20.638;2023-05-11T10:54:37;56924.50;;;-144.78;23.04
55994;BME280;67425;52.126;20.638;2023-05-11T10:57:19;56922.44;;;-144.78;22.84
55994;BME280;67425;52.126;20.638;2023-05-11T11:03:10;56920.34;;;-144.78;23.24
55994;BME280;67425;52.126;20.638;2023-05-11T11:05:36;56959.81;;;-144.78;23.75
55994;BME280;67425;52.126;20.638;2023-05-11T11:08:06;56932.81;;;-144.78;23.50
55994;BME280;67425;52.126;20.638;2023-05-11T11:10:41;56909.97;;;-144.78;22.71
55994;BME280;67425;52.126;20.638;2023-05-11T11:13:16;56924.50;;;-144.78;22.82
55994;BME280;67425;52.126;20.638;2023-05-11T11:18:24;56924.50;;;-144.78;24.00
55994;BME280;67425;52.126;20.638;2023-05-11T11:20:51;56928.66;;;-144.78;22.80
55994;BME280;67425;52.126;20.638;2023-05-11T11:26:06;56916.19;;;-144.78;23.56
55994;BME280;67425;52.126;20.638;2023-05-11T11:31:26;56912.03;;;-144.78;22.27
55994;BME280;67425;52.126;20.638;2023-05-11T11:33:52;56918.28;;;-144.78;22.95
55994;BME280;67425;52.126;20.638;2023-05-11T11:42:07;56924.50;;;-144.78;23.65
55994;BME280;67425;52.126;20.638;2023-05-11T11:44:34;56922.44;;;-144.78;23.36
55994;BME280;67425;52.126;20.638;2023-05-11T11:47:18;56907.91;;;-144.78;23.16
55994;BME280;67425;52.126;20.638;2023-05-11T11:49:50;56920.34;;;-144.78;24.29
55994;BME280;67425;52.126;20.638;2023-05-11T11:54:50;56899.59;;;-144.78;23.38
55994;BME280;67425;52.126;20.638;2023-05-11T11:59:53;56885.06;;;-144.78;23.05
55994;BME280;67425;52.126;20.638;2023-05-11T12:02:19;56885.06;;;-144.78;22.94
55994;BME280;67425;52.126;20.638;2023-05-11T12:07:19;56903.75;;;-144.78;22.93
55994;BME280;67425;52.126;20.638;2023-05-11T12:09:45;56916.19;;;-144.78;23.06
55994;BME280;67425;52.126;20.638;2023-05-11T12:12:11;56907.91;;;-144.78;23.36
55994;BME280;67425;52.126;20.638;2023-05-11T12:14:38;56897.50;;;-144.78;23.23
55994;BME280;67425;52.126;20.638;2023-05-11T12:17:06;56901.66;;;-144.78;23.07
55994;BME280;67425;52.126;20.638;2023-05-11T12:19:41;56889.22;;;-144.78;22.99
55994;BME280;67425;52.126;20.638;2023-05-11T12:22:06;56918.28;;;-144.78;23.45
55994;BME280;67425;52.126;20.638;2023-05-11T12:24:32;56903.75;;;-144.78;22.82
55994;BME280;67425;52.126;20.638;2023-05-11T12:27:01;56912.03;;;-144.78;23.27
55994;BME280;67425;52.126;20.638;2023-05-11T12:29:27;56914.13;;;-144.78;23.58
55994;BME280;67425;52.126;20.638;2023-05-11T12:31:52;56922.44;;;-144.78;23.15
55994;BME280;67425;52.126;20.638;2023-05-11T12:34:20;56893.34;;;-144.78;24.45
55994;BME280;67425;52.126;20.638;2023-05-11T12:36:48;56889.22;;;-144.78;22.17
55994;BME280;67425;52.126;20.638;2023-05-11T12:39:31;56889.22;;;-144.78;22.71
55994;BME280;67425;52.126;20.638;2023-05-11T12:41:56;56891.28;;;-144.78;22.64
55994;BME280;67425;52.126;20.638;2023-05-11T12:44:24;56903.75;;;-144.78;22.92
55994;BME280;67425;52.126;20.638;2023-05-11T12:46:50;56912.03;;;-144.78;22.93
55994;BME280;67425;52.126;20.638;2023-05-11T12:49:23;56903.75;;;-144.78;22.99
55994;BME280;67425;52.126;20.638;2023-05-11T12:54:27;56920.34;;;-144.78;23.34
55994;BME280;67425;52.126;20.638;2023-05-11T12:56:53;56891.28;;;-144.78;22.07
55994;BME280;67425;52.126;20.638;2023-05-11T12:59:26;56891.28;;;-144.78;22.99
55994;BME280;67425;52.126;20.638;2023-05-11T13:01:52;56916.19;;;-144.78;22.97
55994;BME280;67425;52.126;20.638;2023-05-11T13:04:17;56916.19;;;-144.78;22.39
55994;BME280;67425;52.126;20.638;2023-05-11T13:06:46;56912.03;;;-144.78;22.67
55994;BME280;67425;52.126;20.638;2023-05-11T13:09:20;56916.19;;;-144.78;22.48
55994;BME280;67425;52.126;20.638;2023-05-11T13:11:46;56914.13;;;-144.78;22.29
55994;BME280;67425;52.126;20.638;2023-05-11T13:14:15;56907.91;;;-144.78;23.35
55994;BME280;67425;52.126;20.638;2023-05-11T13:16:52;56887.13;;;-144.78;22.70
55994;BME280;67425;52.126;20.638;2023-05-11T13:19:29;56916.19;;;-144.78;22.34
55994;BME280;67425;52.126;20.638;2023-05-11T13:21:55;56909.97;;;-144.78;23.34